Time;durP1;ratioP1;P1;durP2;ratioP2;P2;SDS_P1;SDS_P2;PMS_P1;PMS_P2;Temp;Humidity;BMP_temperature;BMP_pressure;BME280_temperature;BME280_humidity;BME280_pressure;Samples;Min_cycle;Max_cycle;Signal;HPM_P1;HPM_P2
2023/01/03 00:01:39;;;;;;;0.90;0.90;;;;;;;6.35;90.43;100101.72;4277953;33;34194;-81
2023/01/03 00:04:08;;;;;;;1.75;1.60;;;;;;;5.79;94.47;100107.50;4277751;33;33992;-81
2023/01/03 00:06:39;;;;;;;2.25;2.05;;;;;;;5.72;93.11;100113.38;4290549;33;36167;-81
2023/01/03 00:09:10;;;;;;;1.60;1.50;;;;;;;6.36;90.28;100110.38;4277918;33;34521;-81
2023/01/03 00:14:37;;;;;;;0.88;0.88;;;;;;;6.52;90.39;100121.87;4277634;33;33251;-81
2023/01/03 00:17:08;;;;;;;1.95;1.25;;;;;;;6.76;88.94;100121.41;4290687;33;35067;-79
2023/01/03 00:19:40;;;;;;;0.70;0.70;;;;;;;6.57;89.68;100120.25;4290566;33;34472;-81
2023/01/03 00:22:10;;;;;;;1.58;1.48;;;;;;;6.85;89.89;100116.41;4290545;33;33429;-80
2023/01/03 00:24:39;;;;;;;1.62;1.50;;;;;;;6.60;94.42;100115.09;4290727;33;34133;-81
2023/01/03 00:27:07;;;;;;;1.73;1.60;;;;;;;6.57;95.73;100126.28;4290481;33;35250;-79
2023/01/03 00:29:36;;;;;;;1.10;1.00;;;;;;;6.72;95.23;100117.03;4290567;33;34611;-81
2023/01/03 00:32:07;;;;;;;3.70;2.85;;;;;;;6.82;94.89;100117.22;4278048;33;33569;-79
2023/01/03 00:34:35;;;;;;;2.78;2.08;;;;;;;5.98;98.14;100123.41;4289383;33;33933;-80
2023/01/03 00:37:04;;;;;;;3.15;2.60;;;;;;;6.33;96.74;100125.81;4290495;33;35114;-80
2023/01/03 00:39:33;;;;;;;0.65;0.65;;;;;;;6.16;98.64;100122.91;4277674;33;35171;-81
2023/01/03 00:42:01;;;;;;;1.45;1.35;;;;;;;6.12;97.97;100121.97;4290565;33;34334;-81
2023/01/03 00:44:29;;;;;;;4.37;3.15;;;;;;;6.77;93.52;100123.16;4290555;33;33877;-80
2023/01/03 00:46:58;;;;;;;1.08;1.08;;;;;;;6.91;92.59;100132.03;4290401;33;35927;-80
2023/01/03 00:49:26;;;;;;;2.22;2.10;;;;;;;6.40;95.26;100131.13;4289534;33;34998;-80
2023/01/03 00:51:55;;;;;;;4.43;3.83;;;;;;;6.25;98.07;100134.31;4277374;33;32819;-79
2023/01/03 00:54:23;;;;;;;1.67;1.58;;;;;;;5.78;100.00;100126.41;4277501;33;34883;-79
2023/01/03 00:56:51;;;;;;;4.50;3.22;;;;;;;6.06;100.00;100127.88;4277558;33;35093;-79
2023/01/03 00:59:22;;;;;;;1.12;1.08;;;;;;;5.87;100.00;100126.59;4290420;33;34383;-80
2023/01/03 01:01:53;;;;;;;1.30;1.20;;;;;;;6.36;100.00;100126.75;4290447;33;33295;-80
2023/01/03 01:04:25;;;;;;;1.65;1.55;;;;;;;5.97;100.00;100132.00;4277362;33;34061;-80
2023/01/03 01:06:57;;;;;;;1.48;1.35;;;;;;;6.46;100.00;100135.56;4290185;33;35777;-80
2023/01/03 01:09:36;;;;;;;5.00;3.20;;;;;;;6.12;100.00;100136.63;4265551;33;32908;-80
2023/01/03 01:12:05;;;;;;;1.65;1.55;;;;;;;6.25;100.00;100134.31;4290372;33;33439;-79
2023/01/03 01:14:34;;;;;;;1.62;1.52;;;;;;;6.55;100.00;100133.16;4277462;33;34765;-80
2023/01/03 01:17:05;;;;;;;2.25;1.83;;;;;;;6.70;98.70;100131.66;4290296;33;35012;-80
2023/01/03 01:19:39;;;;;;;1.60;1.50;;;;;;;6.69;98.47;100141.16;4277441;33;34302;-79
2023/01/03 01:22:08;;;;;;;3.80;3.50;;;;;;;7.10;96.39;100142.72;4277677;33;33419;-78
2023/01/03 01:24:37;;;;;;;1.27;1.17;;;;;;;7.28;94.22;100148.16;4289065;33;34736;-80
2023/01/03 01:27:06;;;;;;;1.87;1.77;;;;;;;7.12;95.59;100159.16;4277102;33;35118;-79
2023/01/03 01:29:35;;;;;;;2.75;1.73;;;;;;;7.47;93.61;100154.50;4288717;33;35294;-81
2023/01/03 01:32:05;;;;;;;1.27;1.23;;;;;;;7.11;96.69;100155.69;4290166;33;33287;-79
2023/01/03 01:34:33;;;;;;;0.85;0.85;;;;;;;7.52;92.86;100147.69;4290100;33;33782;-79
2023/01/03 01:37:04;;;;;;;1.73;1.62;;;;;;;7.50;94.20;100138.13;4290125;33;35121;-79
2023/01/03 01:39:32;;;;;;;1.73;1.62;;;;;;;7.26;96.26;100142.09;4290286;33;34539;-79
2023/01/03 01:45:02;;;;;;;;;;;;;;;7.84;94.53;100141.22;4289516;33;34063;-80
2023/01/03 01:47:32;;;;;;;3.45;2.00;;;;;;;7.91;94.91;100135.25;4289962;33;35434;-80
2023/01/03 01:50:05;;;;;;;5.82;2.90;;;;;;;7.89;96.36;100136.97;4288850;33;33536;-80
2023/01/03 01:52:36;;;;;;;2.00;1.33;;;;;;;7.84;96.65;100123.06;4290052;33;33384;-81
2023/01/03 01:55:09;;;;;;;7.35;2.25;;;;;;;7.28;100.00;100124.84;4265234;33;33211;-79
2023/01/03 01:57:38;;;;;;;1.73;1.62;;;;;;;7.16;100.00;100127.25;4289814;33;35001;-80
2023/01/03 02:00:08;;;;;;;2.28;1.40;;;;;;;7.34;99.44;100134.44;4289831;33;34074;-79
2023/01/03 02:02:42;;;;;;;2.50;2.15;;;;;;;7.25;99.70;100142.94;4277493;33;33415;-80
2023/01/03 02:05:12;;;;;;;4.55;2.50;;;;;;;7.50;98.87;100144.19;4289785;33;33882;-79
2023/01/03 02:07:40;;;;;;;1.05;1.02;;;;;;;7.42;100.00;100148.38;4288519;33;36012;-80
2023/01/03 02:10:09;;;;;;;2.62;2.42;;;;;;;7.76;97.34;100154.94;4288591;33;34994;-80
2023/01/03 02:15:51;;;;;;;1.37;1.27;;;;;;;7.55;100.00;100146.84;4278835;33;34884;-80
2023/01/03 02:18:41;;;;;;;1.90;1.77;;;;;;;7.63;99.08;100144.38;4276876;33;35179;-82
2023/01/03 02:21:21;;;;;;;1.30;1.30;;;;;;;7.81;98.53;100148.94;4289667;33;34305;-81
2023/01/03 02:24:06;;;;;;;1.08;1.08;;;;;;;7.59;98.35;100162.47;4289768;33;33554;-80
2023/01/03 02:26:49;;;;;;;2.47;2.28;;;;;;;7.19;100.00;100167.03;4289460;33;34002;-79
2023/01/03 02:29:37;;;;;;;0.93;0.93;;;;;;;7.26;100.00;100160.22;4289574;33;35051;-81
2023/01/03 02:32:15;;;;;;;0.80;0.80;;;;;;;7.52;100.00;100162.37;4288311;33;35061;-78
2023/01/03 02:34:59;;;;;;;2.60;1.95;;;;;;;7.58;99.57;100154.66;4288374;33;33518;-79
2023/01/03 02:37:40;;;;;;;2.00;1.90;;;;;;;7.57;98.83;100147.72;4288327;33;34021;-79
2023/01/03 02:40:34;;;;;;;2.70;1.00;;;;;;;7.64;98.72;100141.81;4276427;33;34727;-79
2023/01/03 02:43:06;;;;;;;2.25;1.90;;;;;;;7.72;97.16;100145.34;4288369;33;34365;-77
2023/01/03 02:45:57;;;;;;;1.85;1.75;;;;;;;7.18;100.00;100149.75;4290737;33;34270;-78
2023/01/03 02:49:02;;;;;;;0.95;0.93;;;;;;;7.47;98.89;100148.47;4290867;33;34681;-82
2023/01/03 02:51:41;;;;;;;1.05;0.95;;;;;;;7.08;100.00;100152.19;4289948;33;35846;-83
2023/01/03 02:54:12;;;;;;;4.32;3.65;;;;;;;6.95;100.00;100145.91;4282146;33;33557;-78
2023/01/03 02:56:48;;;;;;;0.95;0.95;;;;;;;6.91;100.00;100142.37;4301909;33;34242;-79
2023/01/03 02:59:22;;;;;;;1.80;1.55;;;;;;;7.26;100.00;100142.09;4289737;33;32717;-76
2023/01/03 03:01:51;;;;;;;0.85;0.85;;;;;;;7.28;100.00;100144.72;4278108;33;35095;-77
2023/01/03 03:04:20;;;;;;;1.23;1.23;;;;;;;7.07;100.00;100142.66;4290623;33;34489;-78
2023/01/03 03:06:59;;;;;;;4.00;3.67;;;;;;;7.09;100.00;100161.66;4289702;33;33423;-77
2023/01/03 03:09:29;;;;;;;1.85;1.70;;;;;;;7.39;100.00;100162.19;4295116;33;34752;-77
2023/01/03 03:14:49;;;;;;;3.55;3.20;;;;;;;7.46;100.00;100167.44;4294107;33;34392;-77
2023/01/03 03:17:24;;;;;;;1.77;1.67;;;;;;;7.25;100.00;100168.84;4277950;33;33866;-78
2023/01/03 03:25:44;;;;;;;2.15;1.58;;;;;;;7.45;100.00;100176.94;4289857;33;35211;-78
2023/01/03 03:28:35;;;;;;;2.78;2.08;;;;;;;7.58;99.83;100175.41;4290603;33;33893;-78
2023/01/03 03:31:24;;;;;;;2.85;2.28;;;;;;;7.88;98.67;100174.97;4279549;33;33969;-78
2023/01/03 03:33:55;;;;;;;4.10;3.10;;;;;;;7.64;100.00;100166.84;4289578;33;35014;-78
2023/01/03 03:36:29;;;;;;;1.37;1.27;;;;;;;7.58;99.40;100165.91;4290753;33;35201;-78
2023/01/03 03:38:58;;;;;;;3.50;3.22;;;;;;;7.99;99.14;100172.50;4290650;33;33525;-76
2023/01/03 03:47:47;;;;;;;2.20;2.10;;;;;;;7.96;97.25;100177.69;4289617;33;34867;-80
2023/01/03 03:50:21;;;;;;;1.90;1.77;;;;;;;8.30;95.80;100172.91;4277689;33;33438;-80
2023/01/03 03:52:53;;;;;;;1.48;1.40;;;;;;;8.01;96.92;100181.16;4290433;33;34777;-80
2023/01/03 03:55:28;;;;;;;1.27;1.27;;;;;;;7.88;99.27;100171.50;4277298;33;35163;-79
2023/01/03 03:58:04;;;;;;;3.87;3.53;;;;;;;7.90;99.64;100169.78;4289553;33;34409;-78
2023/01/03 04:00:37;;;;;;;3.05;2.20;;;;;;;7.61;100.00;100175.44;4290525;33;33412;-81
2023/01/03 04:03:06;;;;;;;2.53;2.25;;;;;;;7.92;100.00;100181.94;4277712;33;34405;-82
2023/01/03 04:05:49;;;;;;;2.15;2.05;;;;;;;7.70;100.00;100172.13;4289387;33;35027;-81
2023/01/03 04:08:17;;;;;;;2.05;1.87;;;;;;;7.91;100.00;100176.75;4289415;33;34514;-83
2023/01/03 04:10:46;;;;;;;2.00;1.17;;;;;;;7.92;100.00;100181.06;4290249;33;33444;-81
2023/01/03 04:13:14;;;;;;;2.30;1.90;;;;;;;8.09;100.00;100187.34;4290310;33;34014;-82
2023/01/03 04:15:42;;;;;;;1.55;1.45;;;;;;;8.41;98.67;100188.59;4277410;33;35413;-82
2023/01/03 04:18:10;;;;;;;1.52;1.35;;;;;;;8.02;99.47;100188.12;4289251;33;34396;-83
2023/01/03 04:20:38;;;;;;;2.00;1.90;;;;;;;8.21;98.98;100190.97;4290175;33;34252;-83
2023/01/03 04:23:07;;;;;;;1.73;1.58;;;;;;;8.05;98.66;100195.94;4290392;33;34016;-81
2023/01/03 04:25:35;;;;;;;1.08;1.08;;;;;;;8.61;97.60;100199.22;4277131;33;34350;-77
2023/01/03 04:28:03;;;;;;;0.70;0.70;;;;;;;8.58;95.60;100199.19;4290298;33;34340;-83
2023/01/03 04:30:32;;;;;;;4.68;3.45;;;;;;;8.38;97.55;100196.34;4290270;33;33426;-84
2023/01/03 04:33:04;;;;;;;2.53;2.33;;;;;;;8.30;96.75;100199.72;4290337;33;34804;-78
2023/01/03 04:35:35;;;;;;;1.55;1.40;;;;;;;8.02;99.20;100198.50;4290340;33;35028;-84
2023/01/03 04:38:04;;;;;;;1.85;1.70;;;;;;;8.10;98.74;100198.59;4290341;33;35182;-84
2023/01/03 04:40:37;;;;;;;2.90;2.55;;;;;;;8.32;96.87;100198.00;4289186;33;34283;-80
2023/01/03 04:45:55;;;;;;;1.20;1.15;;;;;;;7.96;99.94;100198.44;4290184;33;35999;-82
2023/01/03 04:48:24;;;;;;;5.45;1.60;;;;;;;7.85;98.59;100208.62;4290149;33;34539;-80
2023/01/03 04:50:57;;;;;;;4.28;2.70;;;;;;;8.27;97.67;100212.66;4290250;33;33522;-78
2023/01/03 04:53:26;;;;;;;1.45;1.35;;;;;;;8.30;97.20;100217.03;4290157;33;34224;-79
2023/01/03 04:55:57;;;;;;;1.37;0.80;;;;;;;8.41;95.49;100206.75;4290095;33;35910;-77
2023/01/03 04:58:25;;;;;;;2.53;2.28;;;;;;;8.31;95.12;100216.16;4289283;33;34389;-80
2023/01/03 05:01:01;;;;;;;4.18;1.85;;;;;;;7.68;99.53;100216.16;4290186;33;34252;-79
2023/01/03 05:03:32;;;;;;;0.70;0.70;;;;;;;8.07;97.09;100211.53;4288973;33;33671;-80
2023/01/03 05:06:06;;;;;;;3.12;2.87;;;;;;;8.12;96.44;100215.94;4289270;33;35808;-80
2023/01/03 05:08:35;;;;;;;2.75;2.55;;;;;;;8.36;94.26;100211.88;4277199;33;35222;-78
2023/01/03 05:11:05;;;;;;;1.45;1.37;;;;;;;7.97;95.84;100210.53;4290138;33;33493;-80
2023/01/03 05:13:36;;;;;;;1.30;1.25;;;;;;;8.46;93.71;100218.97;4277315;33;34811;-81
2023/01/03 05:16:06;;;;;;;1.60;1.50;;;;;;;8.19;95.81;100210.81;4288950;33;35042;-80
2023/01/03 05:18:35;;;;;;;1.02;1.02;;;;;;;8.12;96.04;100218.53;4290078;33;34389;-81
2023/01/03 05:26:49;;;;;;;1.60;1.50;;;;;;;8.54;93.58;100222.53;4290063;33;35083;-80
2023/01/03 05:29:20;;;;;;;2.30;1.35;;;;;;;8.64;91.44;100225.22;4289645;33;34538;-78
2023/01/03 05:31:51;;;;;;;1.58;1.48;;;;;;;8.14;94.26;100227.19;4290025;33;32593;-77
2023/01/03 05:34:19;;;;;;;1.23;1.20;;;;;;;8.19;94.54;100228.97;4289943;33;34620;-80
2023/01/03 05:36:47;;;;;;;0.60;0.60;;;;;;;8.51;92.76;100232.88;4290015;33;35977;-77
2023/01/03 05:39:15;;;;;;;0.90;0.88;;;;;;;7.95;96.32;100235.56;4289734;33;34428;-82
2023/01/03 05:41:59;;;;;;;7.22;4.82;;;;;;;7.95;98.41;100240.75;4289940;33;34227;-80
2023/01/03 05:44:32;;;;;;;2.78;2.47;;;;;;;7.91;98.09;100249.34;4289877;33;33556;-78
2023/01/03 05:47:03;;;;;;;0.88;0.88;;;;;;;7.98;98.45;100244.25;4289854;33;36028;-81
2023/01/03 05:49:32;;;;;;;0.88;0.88;;;;;;;8.24;98.23;100251.53;4289713;33;33962;-80
2023/01/03 05:52:00;;;;;;;2.45;1.60;;;;;;;8.12;98.03;100252.25;4289831;33;34240;-80
2023/01/03 05:54:29;;;;;;;1.17;1.15;;;;;;;8.01;99.65;100250.34;4289590;33;33721;-79
2023/01/03 05:56:57;;;;;;;1.25;1.20;;;;;;;7.83;100.00;100249.22;4289984;33;35220;-82
2023/01/03 05:59:25;;;;;;;0.70;0.70;;;;;;;8.08;98.79;100250.47;4288372;33;35103;-81
2023/01/03 06:01:54;;;;;;;0.88;0.88;;;;;;;8.04;100.00;100255.56;4289734;33;34334;-82
2023/01/03 06:04:25;;;;;;;1.23;1.23;;;;;;;7.87;100.00;100252.72;4289310;33;33990;-80
2023/01/03 06:06:53;;;;;;;1.15;1.05;;;;;;;7.99;100.00;100260.69;4289521;33;35136;-81
2023/01/03 06:09:21;;;;;;;2.62;2.42;;;;;;;7.90;100.00;100263.16;4288112;33;34415;-80
2023/01/03 06:11:50;;;;;;;5.47;3.62;;;;;;;8.36;99.49;100268.97;4276464;33;32730;-80
2023/01/03 06:14:18;;;;;;;1.60;1.50;;;;;;;7.90;100.00;100281.31;4276727;33;34725;-79
2023/01/03 06:19:45;;;;;;;1.67;1.33;;;;;;;8.13;99.50;100272.13;4264405;33;33286;-80
2023/01/03 06:22:19;;;;;;;2.87;2.62;;;;;;;8.11;97.82;100276.44;4291273;33;33513;-79
2023/01/03 06:24:47;;;;;;;1.90;1.80;;;;;;;8.38;96.33;100282.84;4291036;33;34654;-81
2023/01/03 06:27:16;;;;;;;1.48;1.40;;;;;;;8.06;97.69;100283.28;4291153;33;35051;-80
2023/01/03 06:29:44;;;;;;;1.98;1.87;;;;;;;7.90;99.23;100283.91;4290936;33;35251;-81
2023/01/03 06:32:13;;;;;;;2.05;1.95;;;;;;;7.55;100.00;100279.91;4291057;33;33336;-81
2023/01/03 06:34:41;;;;;;;2.33;1.95;;;;;;;7.69;100.00;100280.09;4291037;33;33861;-81
2023/01/03 06:37:09;;;;;;;1.55;1.45;;;;;;;7.77;100.00;100283.72;4291192;33;34953;-80
2023/01/03 06:39:38;;;;;;;4.68;2.72;;;;;;;7.91;100.00;100277.87;4290959;33;35103;-81
2023/01/03 06:53:17;;;;;;;0.43;0.43;;;;;;;7.52;100.00;100305.78;4290901;33;33591;-81
2023/01/03 06:55:45;;;;;;;3.00;2.80;;;;;;;7.63;100.00;100300.75;4278166;33;34070;-83
2023/01/03 06:58:23;;;;;;;2.05;1.95;;;;;;;7.57;100.00;100300.63;4291228;33;35157;-79
2023/01/03 07:00:52;;;;;;;3.62;1.95;;;;;;;7.55;100.00;100317.88;4291022;33;34275;-86
2023/01/03 07:03:20;;;;;;;8.15;2.90;;;;;;;7.46;100.00;100312.56;4289525;33;33276;-80
2023/01/03 07:05:48;;;;;;;1.77;1.67;;;;;;;7.52;100.00;100317.88;4290789;33;34803;-80
2023/01/03 07:08:17;;;;;;;1.85;1.75;;;;;;;7.47;100.00;100320.38;4290780;33;36022;-81
2023/01/03 07:10:46;;;;;;;2.05;1.90;;;;;;;7.27;100.00;100311.34;4290874;33;34489;-80
2023/01/03 07:16:01;;;;;;;0.50;0.50;;;;;;;7.68;100.00;100325.03;4290799;33;33949;-78
2023/01/03 07:18:30;;;;;;;2.58;2.37;;;;;;;7.48;100.00;100336.78;4290675;33;35116;-77
2023/01/03 07:20:58;;;;;;;1.05;1.05;;;;;;;7.67;100.00;100328.47;4294140;33;34442;-78
2023/01/03 07:23:27;;;;;;;1.95;1.85;;;;;;;7.47;100.00;100335.03;4290719;33;33858;-80
2023/01/03 07:25:55;;;;;;;2.95;2.37;;;;;;;7.67;100.00;100333.66;4301710;33;32939;-81
2023/01/03 07:28:24;;;;;;;5.75;2.50;;;;;;;7.45;100.00;100336.72;4300873;33;35775;-81
2023/01/03 07:31:02;;;;;;;2.35;2.20;;;;;;;7.71;100.00;100335.47;4301051;33;34396;-82
2023/01/03 07:33:31;;;;;;;1.80;1.37;;;;;;;7.70;100.00;100338.91;4277946;33;33584;-83
2023/01/03 07:36:01;;;;;;;2.12;1.67;;;;;;;8.24;98.33;100342.34;4277766;33;33584;-81
2023/01/03 07:38:39;;;;;;;0.68;0.68;;;;;;;7.67;100.00;100341.44;4290870;33;35911;-80
2023/01/03 07:41:08;;;;;;;2.20;1.45;;;;;;;7.48;100.00;100341.97;4277615;33;34486;-84
2023/01/03 07:43:39;;;;;;;4.07;3.10;;;;;;;7.87;100.00;100351.25;4277873;33;33436;-80
2023/01/03 07:46:18;;;;;;;1.85;1.73;;;;;;;7.77;100.00;100345.06;4294027;33;33951;-81
2023/01/03 07:48:50;;;;;;;4.22;2.70;;;;;;;7.68;100.00;100350.97;4301431;33;34914;-80
2023/01/03 07:51:20;;;;;;;1.10;1.00;;;;;;;7.68;100.00;100356.16;4301084;33;35149;-82
2023/01/03 07:53:51;;;;;;;1.70;1.08;;;;;;;7.31;100.00;100363.25;4277718;33;34073;-85
2023/01/03 07:56:22;;;;;;;2.30;2.10;;;;;;;7.49;100.00;100356.69;4290774;33;34945;-84
2023/01/03 07:58:51;;;;;;;4.00;2.65;;;;;;;7.97;100.00;100363.53;4289516;33;35035;-82
2023/01/03 08:01:21;;;;;;;1.50;1.40;;;;;;;7.62;100.00;100373.31;4290386;33;34551;-88
2023/01/03 08:03:51;;;;;;;5.10;1.85;;;;;;;7.84;100.00;100371.97;4277782;33;33393;-82
2023/01/03 08:06:21;;;;;;;1.00;0.98;;;;;;;7.92;100.00;100372.97;4290236;33;34000;-80
2023/01/03 08:14:25;;;;;;;1.42;1.33;;;;;;;7.66;100.00;100373.41;4290533;33;34172;-82
2023/01/03 08:16:55;;;;;;;2.65;1.62;;;;;;;7.88;100.00;100373.78;4290333;33;34702;-79
2023/01/03 08:19:25;;;;;;;2.92;2.50;;;;;;;7.72;100.00;100377.81;4290316;33;35179;-79
2023/01/03 08:21:53;;;;;;;1.08;1.02;;;;;;;7.95;100.00;100376.47;4290373;33;35048;-79
2023/01/03 08:24:22;;;;;;;1.40;1.30;;;;;;;7.68;100.00;100387.25;4290409;33;33309;-78
2023/01/03 08:26:50;;;;;;;1.30;1.17;;;;;;;7.47;100.00;100382.56;4290246;33;34073;-78
2023/01/03 08:29:18;;;;;;;2.45;2.25;;;;;;;7.86;100.00;100381.50;4277335;33;35153;-81
2023/01/03 08:31:51;;;;;;;0.93;0.80;;;;;;;8.06;99.41;100383.56;4290260;33;34325;-78
2023/01/03 08:34:20;;;;;;;3.92;3.17;;;;;;;8.08;100.00;100387.06;4277666;33;33538;-78
2023/01/03 08:37:02;;;;;;;2.22;2.12;;;;;;;8.00;100.00;100386.94;4290231;33;33953;-80
2023/01/03 08:39:42;;;;;;;1.00;1.00;;;;;;;7.70;100.00;100395.94;4289493;33;34861;-79
2023/01/03 08:42:13;;;;;;;4.22;2.78;;;;;;;8.28;100.00;100395.16;4290560;33;33918;-80
2023/01/03 08:44:43;;;;;;;1.83;1.55;;;;;;;8.08;100.00;100390.53;4290320;33;34178;-79
2023/01/03 08:47:15;;;;;;;3.03;2.72;;;;;;;8.27;100.00;100396.87;4277149;33;33152;-78
2023/01/03 08:49:43;;;;;;;2.65;1.30;;;;;;;8.31;100.00;100406.47;4289948;33;34947;-75
2023/01/03 08:52:12;;;;;;;2.97;1.23;;;;;;;7.92;100.00;100404.97;4290021;33;35193;-78
2023/01/03 08:54:40;;;;;;;3.30;3.08;;;;;;;8.46;100.00;100402.41;4290062;33;33468;-79
2023/01/03 08:57:09;;;;;;;2.60;1.90;;;;;;;8.74;99.21;100401.06;4290140;33;34853;-78
2023/01/03 08:59:37;;;;;;;10.10;4.70;;;;;;;8.36;100.00;100406.53;4278073;33;34624;-78
2023/01/03 09:02:05;;;;;;;2.25;2.12;;;;;;;8.05;100.00;100408.62;4290205;33;35348;-78
2023/01/03 09:04:34;;;;;;;2.78;2.60;;;;;;;8.70;100.00;100407.03;4289990;33;33530;-78
2023/01/03 09:07:02;;;;;;;1.10;1.05;;;;;;;8.78;99.43;100410.63;4290152;33;33833;-79
2023/01/03 09:09:30;;;;;;;1.40;1.30;;;;;;;8.42;99.93;100409.25;4288750;33;35093;-78
2023/01/03 09:11:59;;;;;;;1.48;1.33;;;;;;;8.28;100.00;100414.19;4288946;33;34430;-79
2023/01/03 09:14:29;;;;;;;3.40;1.65;;;;;;;8.76;100.00;100404.56;4290335;33;34331;-78
2023/01/03 09:16:57;;;;;;;2.20;2.10;;;;;;;8.84;100.00;100407.25;4277247;33;33119;-79
2023/01/03 09:19:26;;;;;;;1.87;1.55;;;;;;;8.44;100.00;100412.75;4288686;33;36139;-79
2023/01/03 09:21:54;;;;;;;2.00;1.90;;;;;;;8.31;100.00;100421.16;4290093;33;35220;-77
2023/01/03 09:24:22;;;;;;;9.32;2.15;;;;;;;8.44;100.00;100417.94;4290293;33;34240;-78
2023/01/03 09:26:51;;;;;;;2.28;2.15;;;;;;;8.55;100.00;100415.50;4289951;33;33968;-78
2023/01/03 09:29:22;;;;;;;2.58;1.73;;;;;;;8.63;100.00;100413.00;4289677;33;35554;-78
2023/01/03 09:31:50;;;;;;;1.50;1.40;;;;;;;8.86;100.00;100415.94;4289883;33;34736;-78
2023/01/03 09:34:19;;;;;;;2.30;1.80;;;;;;;9.00;100.00;100414.41;4289822;33;34336;-83
2023/01/03 09:36:47;;;;;;;2.30;1.92;;;;;;;9.24;99.31;100419.00;4289869;33;33939;-79
2023/01/03 09:39:16;;;;;;;3.05;1.60;;;;;;;9.19;99.68;100414.62;4289699;33;35936;-79
2023/01/03 09:43:11;;;;;;;1.55;1.50;;;;;;;9.32;98.97;100416.53;4275586;33;35230;-78
2023/01/03 09:44:33;;;;;;;2.20;2.10;;;;;;;9.13;100.00;100412.81;4277001;33;34274;-78
2023/01/03 09:47:03;;;;;;;2.47;2.30;;;;;;;9.58;97.54;100419.41;4289846;33;34347;-78
2023/01/03 09:49:39;;;;;;;11.93;3.60;;;;;;;9.53;97.34;100421.09;4276770;33;34743;-78
2023/01/03 10:04:05;;;;;;;0.57;0.57;;;;;;;10.31;91.06;100418.38;4292747;33;196247;-79
2023/01/03 10:07:01;;;;;;;2.95;1.95;;;;;;;10.07;95.37;100414.66;4300106;33;33725;-78
2023/01/03 10:09:38;;;;;;;2.57;2.37;;;;;;;10.87;87.64;100410.91;4289345;33;34687;-80
2023/01/03 10:12:25;;;;;;;1.73;1.60;;;;;;;10.60;87.74;100409.87;4289594;33;35902;-78
2023/01/03 10:14:56;;;;;;;;;;;;;;;10.36;91.38;100410.56;4289879;33;33927;-76
2023/01/03 10:17:39;;;;;;;2.67;1.33;;;;;;;10.34;88.85;100405.38;4289529;33;34027;-78
2023/01/03 10:20:22;;;;;;;1.12;1.05;;;;;;;10.65;86.66;100402.13;4289234;33;34121;-79
2023/01/03 10:22:56;;;;;;;2.40;1.48;;;;;;;9.93;90.61;100408.47;4289576;33;35214;-79
2023/01/03 10:25:28;;;;;;;3.47;3.22;;;;;;;10.20;90.96;100409.56;4290344;33;35168;-79
2023/01/03 10:28:11;;;;;;;2.15;1.58;;;;;;;9.95;90.39;100401.53;4289383;33;34400;-79
2023/01/03 10:30:56;;;;;;;4.07;1.83;;;;;;;9.53;93.05;100399.41;4299585;33;33981;-78
2023/01/03 10:33:45;;;;;;;1.60;1.50;;;;;;;9.55;94.46;100398.56;4289322;33;35529;-78
2023/01/03 10:36:17;;;;;;;1.12;1.12;;;;;;;9.79;91.70;100405.72;4299595;33;33841;-79
2023/01/03 10:38:45;;;;;;;2.65;2.42;;;;;;;9.78;92.80;100396.19;4289260;33;33372;-79
2023/01/03 10:41:46;;;;;;;1.55;1.48;;;;;;;9.94;91.80;100391.16;4288989;33;34517;-81
2023/01/03 10:44:29;;;;;;;2.20;1.80;;;;;;;9.97;90.47;100396.34;4289143;33;35996;-78
2023/01/03 10:47:08;;;;;;;1.33;1.10;;;;;;;9.74;92.12;100393.53;4288984;33;34692;-79
2023/01/03 10:49:37;;;;;;;1.80;1.70;;;;;;;9.98;92.79;100390.31;4276208;33;34229;-78
2023/01/03 10:52:16;;;;;;;3.70;2.75;;;;;;;10.49;90.09;100388.12;4299230;33;33954;-79
2023/01/03 10:54:53;;;;;;;4.70;2.40;;;;;;;9.98;91.47;100392.91;4299759;33;35047;-79
2023/01/03 10:57:38;;;;;;;2.33;1.87;;;;;;;10.15;91.03;100395.66;4299529;33;34463;-78
2023/01/03 11:00:36;;;;;;;1.17;1.17;;;;;;;10.03;91.73;100392.09;4288802;33;34377;-80
2023/01/03 11:03:08;;;;;;;1.23;1.15;;;;;;;10.05;92.47;100390.34;4262735;33;34129;-83
2023/01/03 11:05:39;;;;;;;8.85;4.05;;;;;;;9.95;92.28;100388.53;4290818;33;35091;-80
2023/01/03 11:08:44;;;;;;;4.55;3.55;;;;;;;10.35;88.98;100383.69;4290810;33;34117;-82
2023/01/03 11:11:33;;;;;;;1.48;1.40;;;;;;;9.94;91.87;100381.59;4290564;33;33579;-80
2023/01/03 11:14:16;;;;;;;1.10;1.10;;;;;;;10.56;88.93;100376.88;4290929;33;34619;-80
2023/01/03 11:16:52;;;;;;;1.80;1.70;;;;;;;11.05;85.29;100371.91;4290694;33;35928;-78
2023/01/03 11:19:25;;;;;;;2.15;1.98;;;;;;;11.22;84.05;100374.56;4290775;33;35295;-79
2023/01/03 11:22:09;;;;;;;1.52;1.42;;;;;;;10.92;85.49;100375.31;4290685;33;34264;-81
2023/01/03 11:24:40;;;;;;;1.62;1.52;;;;;;;10.76;87.69;100375.22;4277896;33;34012;-78
2023/01/03 11:27:30;;;;;;;1.23;1.12;;;;;;;11.17;87.32;100381.50;4291789;33;34642;-79
2023/01/03 11:30:19;;;;;;;2.33;1.62;;;;;;;11.25;84.69;100371.12;4290672;33;34285;-79
2023/01/03 11:33:11;;;;;;;11.75;2.50;;;;;;;11.20;83.60;100377.16;4290943;33;33311;-79
2023/01/03 11:35:54;;;;;;;2.00;1.83;;;;;;;11.01;85.51;100380.56;4290570;33;33740;-80
2023/01/03 11:38:40;;;;;;;1.52;1.45;;;;;;;11.47;81.47;100372.91;4290785;33;34902;-80
2023/01/03 11:41:15;;;;;;;2.08;1.98;;;;;;;11.50;81.60;100370.28;4290518;33;34422;-79
2023/01/03 11:44:11;;;;;;;6.47;2.67;;;;;;;11.08;83.30;100371.94;4290654;33;34160;-80
2023/01/03 11:46:50;;;;;;;1.65;1.55;;;;;;;10.91;82.50;100376.19;4290929;33;34670;-79
2023/01/03 11:49:39;;;;;;;1.60;1.50;;;;;;;10.81;83.23;100367.47;4277406;33;35186;-80
2023/01/03 11:52:53;;;;;;;5.95;4.35;;;;;;;10.68;85.39;100366.53;4290356;33;34491;-79
2023/01/03 11:55:26;;;;;;;2.65;2.37;;;;;;;10.50;86.99;100367.31;4290621;33;33627;-79
2023/01/03 11:58:16;;;;;;;2.80;1.83;;;;;;;10.52;86.95;100365.56;4290648;33;34764;-79
2023/01/03 12:01:01;;;;;;;2.58;2.33;;;;;;;10.33;88.61;100363.72;4290541;33;35152;-79
2023/01/03 12:03:56;;;;;;;1.62;1.50;;;;;;;10.33;88.23;100361.12;4290571;33;34418;-80
2023/01/03 12:06:30;;;;;;;2.53;1.25;;;;;;;10.89;85.53;100357.06;4281840;33;33396;-78
2023/01/03 12:08:58;;;;;;;3.35;2.95;;;;;;;10.87;85.11;100364.91;4290505;33;34115;-80
2023/01/03 12:12:08;;;;;;;4.80;1.12;;;;;;;10.82;83.57;100364.00;4290658;33;35535;-80
2023/01/03 12:14:45;;;;;;;1.17;1.17;;;;;;;10.47;86.12;100356.88;4288892;33;34443;-84
2023/01/03 12:17:19;;;;;;;2.83;2.17;;;;;;;10.53;85.21;100356.88;4277922;33;33357;-82
2023/01/03 12:19:54;;;;;;;1.67;1.58;;;;;;;10.49;85.47;100354.28;4289788;33;34062;-85
2023/01/03 12:22:42;;;;;;;0.68;0.68;;;;;;;10.47;85.60;100354.25;4290623;33;35018;-82
2023/01/03 12:25:47;;;;;;;2.37;2.20;;;;;;;10.66;84.19;100349.13;4301355;33;34433;-80
2023/01/03 12:28:39;;;;;;;1.27;0.95;;;;;;;10.29;87.12;100347.19;4276639;33;34048;-81
2023/01/03 12:31:29;;;;;;;2.05;1.42;;;;;;;10.00;88.79;100350.41;4284213;33;34069;-80
2023/01/03 12:34:21;;;;;;;0.52;0.52;;;;;;;9.94;88.19;100350.38;4300843;33;35054;-78
2023/01/03 12:37:01;;;;;;;2.15;1.90;;;;;;;10.04;87.49;100344.41;4290131;33;35184;-83
2023/01/03 12:39:39;;;;;;;5.32;3.90;;;;;;;10.15;86.08;100351.41;4290601;33;33319;-81
2023/01/03 12:42:30;;;;;;;0.50;0.50;;;;;;;10.15;86.64;100359.22;4277806;33;34734;-80
2023/01/03 12:45:08;;;;;;;1.15;0.95;;;;;;;9.87;88.84;100353.78;4288551;33;34948;-81
2023/01/03 12:47:46;;;;;;;2.72;2.53;;;;;;;9.96;88.43;100358.22;4290402;33;34479;-78
2023/01/03 12:50:26;;;;;;;2.67;2.50;;;;;;;9.86;88.15;100352.03;4277358;33;33453;-80
2023/01/03 12:53:02;;;;;;;2.58;2.12;;;;;;;10.41;85.59;100352.50;4277517;33;33949;-81
2023/01/03 12:55:48;;;;;;;3.12;2.92;;;;;;;9.70;87.79;100355.37;4288803;33;35791;-88
2023/01/03 12:58:23;;;;;;;1.75;1.65;;;;;;;9.99;86.62;100350.44;4290030;33;34287;-79
2023/01/03 13:00:58;;;;;;;2.00;1.73;;;;;;;9.78;87.43;100353.72;4296933;33;34208;-77
2023/01/03 13:03:36;;;;;;;1.52;1.42;;;;;;;10.26;85.20;100347.16;4290322;33;34066;-80
2023/01/03 13:06:30;;;;;;;0.88;0.88;;;;;;;10.47;83.54;100351.66;4300819;33;35039;-79
2023/01/03 13:09:18;;;;;;;1.83;1.73;;;;;;;9.87;86.25;100354.66;4300825;33;34387;-78